Terminal Aerodrome Forecast
Issued by NWS Columbia, SC

Home | Current Version | Previous Version | Text Only | Print | Product List | Glossary On
Versions: 1 2 3 4 5 6 7 8 9 10 11 12 13 14 15 16 17 18 19 20 21 22 23 24 25 26 27 28 29 30 31 32 33 34 35 36 37 38 39 40 41 42 43 44 45 46 47
302
FTUS42 KCAE 251149 AAA
TAFAGS
TAF AMD
KAGS 251149Z 2512/2612 VRB03KT 4SM BR SKC
      TEMPO 2512/2513 1/4SM FG VV002
     FM251500 25006KT P6SM SCT200
     FM251800 25009G15KT P6SM SCT090 BKN150
     FM252200 25008KT P6SM SCT150
     FM260300 VRB03KT P6SM SKC=

USA.gov is the U.S. government's official web portal to all federal, state and local government web resources and services.